createdAt,value
2023-02-06T00:00:47.623Z,4.90
2023-02-06T00:03:14.597Z,5.37
2023-02-06T00:05:41.512Z,4.23
2023-02-06T00:08:08.508Z,5.10
2023-02-06T00:10:35.713Z,6.43
2023-02-06T00:13:02.701Z,5.20
2023-02-06T00:15:29.609Z,5.73
2023-02-06T00:17:56.577Z,5.57
2023-02-06T00:20:23.776Z,5.40
2023-02-06T00:22:50.731Z,5.60
2023-02-06T00:25:17.685Z,5.37
2023-02-06T00:27:44.603Z,5.33
2023-02-06T00:30:12.023Z,5.57
2023-02-06T00:32:39.098Z,5.17
2023-02-06T00:35:08.037Z,5.47
2023-02-06T00:37:35.024Z,6.13
2023-02-06T00:40:01.918Z,5.40
2023-02-06T00:42:28.828Z,5.17
2023-02-06T00:44:55.779Z,5.20
2023-02-06T00:47:22.843Z,5.67
2023-02-06T00:49:50.784Z,4.80
2023-02-06T00:52:19.373Z,5.43
2023-02-06T00:54:46.249Z,5.90
2023-02-06T00:57:13.197Z,5.40
2023-02-06T00:59:41.492Z,5.17
2023-02-06T01:02:08.410Z,5.83
2023-02-06T01:04:35.382Z,5.53
2023-02-06T01:07:02.423Z,8.83
2023-02-06T01:09:31.144Z,7.80
2023-02-06T01:11:58.100Z,6.13
2023-02-06T01:14:26.283Z,5.87
2023-02-06T01:16:53.233Z,5.97
2023-02-06T01:19:20.132Z,5.47
2023-02-06T01:21:47.088Z,6.17
2023-02-06T01:24:16.217Z,5.90
2023-02-06T01:26:43.977Z,5.93
2023-02-06T01:29:11.033Z,6.63
2023-02-06T01:31:37.976Z,5.83
2023-02-06T01:34:05.927Z,6.33
2023-02-06T01:36:32.886Z,6.23
2023-02-06T01:38:59.971Z,6.63
2023-02-06T01:41:26.977Z,5.53
2023-02-06T01:44:26.502Z,5.10
2023-02-06T01:46:56.660Z,6.23
2023-02-06T01:49:32.377Z,5.93
2023-02-06T01:52:19.854Z,6.00
2023-02-06T01:54:59.206Z,5.67
2023-02-06T01:57:27.284Z,5.37
2023-02-06T02:00:00.199Z,6.43
2023-02-06T02:02:37.422Z,5.33
2023-02-06T02:05:08.270Z,5.53
2023-02-06T02:07:44.553Z,5.57
2023-02-06T02:10:11.791Z,5.30
2023-02-06T02:12:38.837Z,5.03
2023-02-06T02:15:06.296Z,6.90
2023-02-06T02:17:56.682Z,5.33
2023-02-06T02:20:32.442Z,6.07
2023-02-06T02:23:47.292Z,5.20
2023-02-06T02:26:45.073Z,5.30
2023-02-06T02:29:56.283Z,6.27
2023-02-06T02:32:34.659Z,5.13
2023-02-06T02:35:33.464Z,6.10
2023-02-06T02:38:20.457Z,7.37
2023-02-06T02:41:09.196Z,5.37
2023-02-06T02:43:44.822Z,4.73
2023-02-06T02:46:36.335Z,5.47
2023-02-06T02:49:16.790Z,6.37
2023-02-06T02:51:45.253Z,5.33
2023-02-06T02:54:12.250Z,6.43
2023-02-06T02:56:39.592Z,6.00
2023-02-06T02:59:24.183Z,6.67
2023-02-06T03:02:11.199Z,5.87
2023-02-06T03:04:44.943Z,5.37
2023-02-06T03:07:41.844Z,7.23
2023-02-06T03:10:48.258Z,6.07
2023-02-06T03:13:24.090Z,7.40
2023-02-06T03:15:59.612Z,7.10
2023-02-06T03:18:34.724Z,6.87
2023-02-06T03:21:10.110Z,6.83
2023-02-06T03:23:41.336Z,6.90
2023-02-06T03:26:10.805Z,6.53
2023-02-06T03:28:43.039Z,6.53
2023-02-06T03:31:25.296Z,6.23
2023-02-06T03:34:08.607Z,7.97
2023-02-06T03:36:36.170Z,6.90
2023-02-06T03:39:03.461Z,6.40
2023-02-06T03:41:34.638Z,5.40
2023-02-06T03:44:04.037Z,4.77
2023-02-06T03:46:32.942Z,5.33
2023-02-06T03:49:02.981Z,5.23
2023-02-06T03:51:47.827Z,4.90
2023-02-06T03:54:17.896Z,5.47
2023-02-06T03:56:53.058Z,5.57
2023-02-06T03:59:20.545Z,6.17
2023-02-06T04:01:51.915Z,6.90
2023-02-06T04:04:21.418Z,6.97
2023-02-06T04:06:48.386Z,8.03
2023-02-06T04:09:15.310Z,7.00
2023-02-06T04:11:42.248Z,7.40
2023-02-06T04:14:09.220Z,6.80
2023-02-06T04:16:36.200Z,7.70
2023-02-06T04:19:03.088Z,6.67
2023-02-06T04:21:29.959Z,8.27
2023-02-06T04:23:56.851Z,7.53
2023-02-06T04:26:23.838Z,7.37
2023-02-06T04:28:50.862Z,7.27
2023-02-06T04:31:18.134Z,7.07
2023-02-06T04:33:45.143Z,7.90
2023-02-06T04:36:12.108Z,6.57
2023-02-06T04:38:39.099Z,7.80
2023-02-06T04:41:07.415Z,8.33
2023-02-06T04:43:34.709Z,8.47
2023-02-06T04:46:01.785Z,8.87
2023-02-06T04:48:28.787Z,7.73
2023-02-06T04:50:55.715Z,8.60
2023-02-06T04:53:22.738Z,8.57
2023-02-06T04:55:52.353Z,9.47
2023-02-06T04:58:19.212Z,8.97
2023-02-06T05:00:46.344Z,8.83
2023-02-06T05:03:13.474Z,9.07
2023-02-06T05:05:40.380Z,8.83
2023-02-06T05:08:07.295Z,8.90
2023-02-06T05:10:34.258Z,8.23
2023-02-06T05:13:02.563Z,8.87
2023-02-06T05:15:29.517Z,7.50
2023-02-06T05:17:56.413Z,8.53
2023-02-06T05:20:23.366Z,9.33
2023-02-06T05:22:50.380Z,7.10
2023-02-06T05:25:17.407Z,8.40
2023-02-06T05:27:44.370Z,8.20
2023-02-06T05:30:12.340Z,10.53
2023-02-06T05:32:39.263Z,12.67
2023-02-06T05:35:07.164Z,12.30
2023-02-06T05:37:34.414Z,11.57
2023-02-06T05:40:01.541Z,9.33
2023-02-06T05:42:28.434Z,9.67
2023-02-06T05:44:55.407Z,9.93
2023-02-06T05:47:22.382Z,10.37
2023-02-06T05:49:49.348Z,9.43
2023-02-06T05:52:16.439Z,10.33
2023-02-06T05:54:43.308Z,9.27
2023-02-06T05:57:10.584Z,9.60
2023-02-06T05:59:37.596Z,9.77
2023-02-06T06:02:05.991Z,11.97
2023-02-06T06:04:32.934Z,10.37
2023-02-06T06:06:59.852Z,9.57
2023-02-06T06:09:26.801Z,11.03
2023-02-06T06:11:53.979Z,10.37
2023-02-06T06:14:21.020Z,12.10
2023-02-06T06:16:47.978Z,13.83
2023-02-06T06:19:14.918Z,14.90
2023-02-06T06:21:41.923Z,19.23
2023-02-06T06:24:09.022Z,16.93
2023-02-06T06:26:36.069Z,24.17
2023-02-06T06:29:03.639Z,21.93
2023-02-06T06:31:30.609Z,18.80
2023-02-06T06:33:57.612Z,19.40
2023-02-06T06:36:24.588Z,17.80
2023-02-06T06:38:51.595Z,17.27
2023-02-06T06:41:18.512Z,17.83
2023-02-06T06:43:45.408Z,15.27
2023-02-06T06:46:12.467Z,17.10
2023-02-06T06:48:40.315Z,15.23
2023-02-06T06:51:07.456Z,14.50
2023-02-06T06:53:34.637Z,13.73
2023-02-06T06:56:06.140Z,14.37
2023-02-06T06:58:34.009Z,13.30
2023-02-06T07:01:00.964Z,12.70
2023-02-06T07:03:28.007Z,15.40
2023-02-06T07:05:54.961Z,11.73
2023-02-06T07:08:21.939Z,12.30
2023-02-06T07:10:49.121Z,14.70
2023-02-06T07:13:16.336Z,11.60
2023-02-06T07:15:43.515Z,10.93
2023-02-06T07:18:11.863Z,10.20
2023-02-06T07:20:39.087Z,11.27
2023-02-06T07:23:06.674Z,10.27
2023-02-06T07:25:33.993Z,10.47
2023-02-06T07:28:01.311Z,11.10
2023-02-06T07:30:28.435Z,10.40
2023-02-06T07:32:55.433Z,9.93
2023-02-06T07:35:22.429Z,9.87
2023-02-06T07:37:49.352Z,12.40
2023-02-06T07:40:16.393Z,11.90
2023-02-06T07:42:43.292Z,10.20
2023-02-06T07:45:19.888Z,10.60
2023-02-06T07:47:46.777Z,9.73
2023-02-06T07:50:13.727Z,11.40
2023-02-06T07:52:40.639Z,8.73
2023-02-06T07:55:10.181Z,8.27
2023-02-06T07:57:37.227Z,8.90
2023-02-06T08:00:05.321Z,25.20
2023-02-06T08:02:38.973Z,17.20
2023-02-06T08:05:06.172Z,16.27
2023-02-06T08:07:33.135Z,11.23
2023-02-06T08:10:00.088Z,9.53
2023-02-06T08:12:29.838Z,12.50
2023-02-06T08:14:56.899Z,10.03
2023-02-06T08:17:23.883Z,9.97
2023-02-06T08:19:50.852Z,10.00
2023-02-06T08:22:17.870Z,10.53
2023-02-06T08:24:45.410Z,11.87
2023-02-06T08:27:12.391Z,12.23
2023-02-06T08:29:42.617Z,12.23
2023-02-06T08:32:10.911Z,12.27
2023-02-06T08:34:41.593Z,11.87
2023-02-06T08:37:08.521Z,10.90
2023-02-06T08:39:35.438Z,10.97
2023-02-06T08:42:02.563Z,14.67
2023-02-06T08:44:29.603Z,21.57
2023-02-06T08:47:09.193Z,21.73
2023-02-06T08:49:36.652Z,12.47
2023-02-06T08:52:05.793Z,17.77
2023-02-06T08:54:35.507Z,18.60
2023-02-06T08:57:03.401Z,14.37
2023-02-06T08:59:31.020Z,22.13
2023-02-06T09:01:58.080Z,25.10
2023-02-06T09:04:25.055Z,11.63
2023-02-06T09:06:52.316Z,31.93
2023-02-06T09:09:19.517Z,21.93
2023-02-06T09:11:46.563Z,16.00
2023-02-06T09:14:16.896Z,17.33
2023-02-06T09:16:53.217Z,18.37
2023-02-06T09:19:20.327Z,23.00
2023-02-06T09:21:47.808Z,16.43
2023-02-06T09:24:15.241Z,19.43
2023-02-06T09:26:58.636Z,22.00
2023-02-06T09:29:29.084Z,40.93
2023-02-06T09:31:57.392Z,21.10
2023-02-06T09:34:26.011Z,13.97
2023-02-06T09:36:56.805Z,17.57
2023-02-06T09:39:24.710Z,13.63
2023-02-06T09:41:56.198Z,13.07
2023-02-06T09:44:33.273Z,13.23
2023-02-06T09:47:22.556Z,16.23
2023-02-06T09:49:54.375Z,13.30
2023-02-06T09:52:30.313Z,13.00
2023-02-06T09:55:02.181Z,14.30
2023-02-06T09:57:49.627Z,12.77
2023-02-06T10:00:28.698Z,17.37
2023-02-06T10:02:58.511Z,12.33
2023-02-06T10:05:46.521Z,12.73
2023-02-06T10:08:20.295Z,10.20
2023-02-06T10:10:58.499Z,11.30
2023-02-06T10:13:34.578Z,10.70
2023-02-06T10:16:34.882Z,10.33
2023-02-06T10:19:29.575Z,9.73
2023-02-06T10:22:21.182Z,13.17
2023-02-06T10:25:14.427Z,10.83
2023-02-06T10:27:43.947Z,12.97
2023-02-06T10:30:17.876Z,11.63
2023-02-06T10:33:07.899Z,11.30
2023-02-06T10:36:05.175Z,11.70
2023-02-06T10:39:06.033Z,12.50
2023-02-06T10:41:51.945Z,12.93
2023-02-06T10:44:29.203Z,14.33
2023-02-06T10:46:57.408Z,12.43
2023-02-06T10:49:43.863Z,11.87
2023-02-06T10:52:29.052Z,11.87
2023-02-06T10:54:59.388Z,11.77
2023-02-06T10:57:31.057Z,11.83
2023-02-06T11:00:01.646Z,19.70
2023-02-06T11:02:32.559Z,11.03
2023-02-06T11:05:17.499Z,12.43
2023-02-06T11:07:49.980Z,10.43
2023-02-06T11:10:20.215Z,12.03
2023-02-06T11:13:12.414Z,11.93
2023-02-06T11:15:57.974Z,13.93
2023-02-06T11:18:31.440Z,16.13
2023-02-06T11:20:58.509Z,11.93
2023-02-06T11:23:28.484Z,14.70
2023-02-06T11:26:10.615Z,13.13
2023-02-06T11:28:48.922Z,12.97
2023-02-06T11:31:18.590Z,13.90
2023-02-06T11:33:45.509Z,13.57
2023-02-06T11:36:24.765Z,13.20
2023-02-06T11:39:02.212Z,13.33
2023-02-06T11:41:30.160Z,14.50
2023-02-06T11:44:02.757Z,13.10
2023-02-06T11:46:36.900Z,14.37
2023-02-06T11:49:25.807Z,14.93
2023-02-06T11:52:03.704Z,12.63
2023-02-06T11:54:35.394Z,12.53
2023-02-06T11:57:07.976Z,13.63
2023-02-06T11:59:36.866Z,12.83
2023-02-06T12:02:29.674Z,13.20
2023-02-06T12:05:28.092Z,12.83
2023-02-06T12:08:02.546Z,12.23
2023-02-06T12:10:34.283Z,12.80
2023-02-06T12:13:16.198Z,12.80
2023-02-06T12:15:48.121Z,14.90
2023-02-06T12:18:22.657Z,12.57
2023-02-06T12:20:54.089Z,11.30
2023-02-06T12:23:23.110Z,11.20
2023-02-06T12:25:54.084Z,10.63
2023-02-06T12:28:41.514Z,10.87
2023-02-06T12:31:16.042Z,10.60
2023-02-06T12:33:48.731Z,12.27
2023-02-06T12:36:25.571Z,10.23
2023-02-06T12:39:02.718Z,8.20
2023-02-06T12:41:56.634Z,9.17
2023-02-06T12:44:37.102Z,9.63
2023-02-06T12:47:18.471Z,8.47
2023-02-06T12:50:20.566Z,9.70
2023-02-06T12:52:53.575Z,9.37
2023-02-06T12:55:29.622Z,8.33
2023-02-06T12:57:57.950Z,9.17
2023-02-06T13:00:46.279Z,8.80
2023-02-06T13:03:40.386Z,13.10
2023-02-06T13:06:23.984Z,8.73
2023-02-06T13:08:57.389Z,8.43
2023-02-06T13:11:31.846Z,8.73
2023-02-06T13:14:26.540Z,9.50
2023-02-06T13:17:11.726Z,9.00
2023-02-06T13:19:41.783Z,7.50
2023-02-06T13:22:16.717Z,8.30
2023-02-06T13:24:45.909Z,7.73
2023-02-06T13:27:18.288Z,8.23
2023-02-06T13:29:53.900Z,9.23
2023-02-06T13:32:31.417Z,9.77
2023-02-06T13:35:24.482Z,8.93
2023-02-06T13:38:09.528Z,8.20
2023-02-06T13:40:36.747Z,10.17
2023-02-06T13:43:03.715Z,10.87
2023-02-06T13:45:52.228Z,9.47
2023-02-06T13:48:28.145Z,9.93
2023-02-06T13:51:36.945Z,9.90
2023-02-06T13:54:29.837Z,9.67
2023-02-06T13:57:34.379Z,9.37
2023-02-06T14:00:02.881Z,10.27
2023-02-06T14:02:41.711Z,9.37
2023-02-06T14:05:16.898Z,9.23
2023-02-06T14:08:06.532Z,7.07
2023-02-06T14:11:01.602Z,7.20
2023-02-06T14:13:52.986Z,8.13
2023-02-06T14:16:28.838Z,7.03
2023-02-06T14:19:10.644Z,7.73
2023-02-06T14:22:04.127Z,7.07
2023-02-06T14:25:05.312Z,7.63
2023-02-06T14:27:47.159Z,6.50
2023-02-06T14:30:26.103Z,7.17
2023-02-06T14:33:19.837Z,7.60
2023-02-06T14:36:19.620Z,6.57
2023-02-06T14:38:55.753Z,6.43
2023-02-06T14:41:23.394Z,6.47
2023-02-06T14:43:51.646Z,5.87
2023-02-06T14:46:20.367Z,7.03
2023-02-06T14:48:56.708Z,7.27
2023-02-06T14:51:33.867Z,7.77
2023-02-06T14:54:06.295Z,9.03
2023-02-06T14:56:38.299Z,8.10
2023-02-06T14:59:15.462Z,9.97
2023-02-06T15:01:45.137Z,10.57
2023-02-06T15:04:22.029Z,11.37
2023-02-06T15:06:57.965Z,10.50
2023-02-06T15:09:30.666Z,11.67
2023-02-06T15:12:03.769Z,10.73
2023-02-06T15:14:33.489Z,8.60
2023-02-06T15:17:02.567Z,9.70
2023-02-06T15:19:32.466Z,8.93
2023-02-06T15:22:13.081Z,9.80
2023-02-06T15:24:54.041Z,10.07
2023-02-06T15:27:26.981Z,9.10
2023-02-06T15:29:55.053Z,10.37
2023-02-06T15:32:34.353Z,9.87
2023-02-06T15:35:02.488Z,9.50
2023-02-06T15:37:33.636Z,9.17
2023-02-06T15:40:18.781Z,9.40
2023-02-06T15:42:49.757Z,8.70
2023-02-06T15:45:37.644Z,8.23
2023-02-06T15:48:25.478Z,8.57
2023-02-06T15:51:07.684Z,8.23
2023-02-06T15:53:38.373Z,12.33
2023-02-06T15:56:09.132Z,7.87
2023-02-06T15:58:37.835Z,15.80
2023-02-06T16:01:07.635Z,52.47
2023-02-06T16:03:34.620Z,20.23
2023-02-06T16:06:01.605Z,12.37
2023-02-06T16:08:32.860Z,14.03
2023-02-06T16:11:26.356Z,12.53
2023-02-06T16:13:53.974Z,12.63
2023-02-06T16:16:23.832Z,13.43
2023-02-06T16:18:52.702Z,10.77
2023-02-06T16:21:28.072Z,12.37
2023-02-06T16:24:03.788Z,12.90
2023-02-06T16:26:38.333Z,12.43
2023-02-06T16:29:15.933Z,15.93
2023-02-06T16:31:44.475Z,14.13
2023-02-06T16:34:39.712Z,13.47
2023-02-06T16:37:12.993Z,13.83
2023-02-06T16:39:44.408Z,20.50
2023-02-06T16:42:20.701Z,18.27
2023-02-06T16:44:51.043Z,16.10
2023-02-06T16:47:20.591Z,16.33
2023-02-06T16:49:51.955Z,16.80
2023-02-06T16:52:23.108Z,19.43
2023-02-06T16:54:50.422Z,19.43
2023-02-06T16:57:35.035Z,19.87
2023-02-06T17:00:05.926Z,18.23
2023-02-06T17:02:33.112Z,16.30
2023-02-06T17:05:00.213Z,16.87
2023-02-06T17:07:31.572Z,16.40
2023-02-06T17:09:59.147Z,16.00
2023-02-06T17:12:26.087Z,19.57
2023-02-06T17:14:53.080Z,18.87
2023-02-06T17:17:21.695Z,19.33
2023-02-06T17:19:49.986Z,24.40
2023-02-06T17:22:17.076Z,26.13
2023-02-06T17:24:44.428Z,34.10
2023-02-06T17:27:17.979Z,30.77
2023-02-06T17:29:47.374Z,25.83
2023-02-06T17:32:16.235Z,24.93
2023-02-06T17:34:43.323Z,28.47
2023-02-06T17:37:20.577Z,30.70
2023-02-06T17:39:50.058Z,30.67
2023-02-06T17:42:17.228Z,28.07
2023-02-06T17:44:44.513Z,30.10
2023-02-06T17:47:11.760Z,29.93
2023-02-06T17:49:38.795Z,31.13
2023-02-06T17:52:05.910Z,24.53
2023-02-06T17:54:33.018Z,26.13
2023-02-06T17:57:00.016Z,27.17
2023-02-06T17:59:26.972Z,31.60
2023-02-06T18:01:54.129Z,36.57
2023-02-06T18:04:21.469Z,44.50
2023-02-06T18:06:48.540Z,46.00
2023-02-06T18:33:35.279Z,26.63
2023-02-06T18:36:06.906Z,29.17
2023-02-06T18:38:34.272Z,30.20
2023-02-06T18:41:06.233Z,26.37
2023-02-06T18:43:33.743Z,24.33
2023-02-06T18:46:07.065Z,25.97
2023-02-06T18:48:34.242Z,25.50
2023-02-06T18:51:06.216Z,24.93
2023-02-06T18:53:33.236Z,26.63
2023-02-06T18:56:01.611Z,25.57
2023-02-06T18:58:28.746Z,24.97
2023-02-06T19:00:55.819Z,26.37
2023-02-06T19:03:22.959Z,38.20
2023-02-06T19:05:49.968Z,35.87
2023-02-06T19:08:16.970Z,36.90
2023-02-06T19:10:44.124Z,33.50
2023-02-06T19:13:11.389Z,31.97
2023-02-06T19:15:38.407Z,32.00
2023-02-06T19:18:06.132Z,30.50
2023-02-06T19:20:33.046Z,31.30
2023-02-06T19:23:00.066Z,34.53
2023-02-06T19:25:27.289Z,42.57
2023-02-06T19:27:55.195Z,42.67
2023-02-06T19:30:22.321Z,45.30
2023-02-06T19:32:51.531Z,38.50
2023-02-06T19:35:18.945Z,41.40
2023-02-06T19:37:45.865Z,27.17
2023-02-06T19:40:12.786Z,31.10
2023-02-06T19:42:40.586Z,28.70
2023-02-06T19:45:07.684Z,32.27
2023-02-06T19:47:35.687Z,34.03
2023-02-06T19:50:02.621Z,25.77
2023-02-06T19:52:29.497Z,26.60
2023-02-06T19:54:56.490Z,26.70
2023-02-06T19:57:23.561Z,28.10
2023-02-06T19:59:50.533Z,27.17
2023-02-06T20:02:17.611Z,28.57
2023-02-06T20:04:46.149Z,28.10
2023-02-06T20:07:13.239Z,28.80
2023-02-06T20:09:42.028Z,29.17
2023-02-06T20:12:12.417Z,28.77
2023-02-06T20:14:39.817Z,28.33
2023-02-06T20:17:06.936Z,26.07
2023-02-06T20:19:34.026Z,29.30
2023-02-06T20:22:01.094Z,32.73
2023-02-06T20:24:30.482Z,24.13
2023-02-06T20:27:00.870Z,24.67
2023-02-06T20:29:31.409Z,23.10
2023-02-06T20:31:59.286Z,24.63
2023-02-06T20:34:27.243Z,23.87
2023-02-06T20:36:55.574Z,24.53
2023-02-06T20:39:23.266Z,24.80
2023-02-06T20:41:50.859Z,24.57
2023-02-06T20:44:19.324Z,23.77
2023-02-06T20:46:46.611Z,22.87
2023-02-06T20:49:16.453Z,22.10
2023-02-06T20:51:43.804Z,21.93
2023-02-06T20:54:11.667Z,21.57
2023-02-06T20:56:40.096Z,23.50
2023-02-06T20:59:07.886Z,24.43
2023-02-06T21:01:35.478Z,23.37
2023-02-06T21:04:07.509Z,25.93
2023-02-06T21:06:36.515Z,23.23
2023-02-06T21:09:05.025Z,26.20
2023-02-06T21:11:35.328Z,27.23
2023-02-06T21:14:04.581Z,24.70
2023-02-06T21:16:33.418Z,25.93
2023-02-06T21:19:01.438Z,24.13
2023-02-06T21:21:28.695Z,23.83
2023-02-06T21:23:55.920Z,25.43
2023-02-06T21:26:24.469Z,26.03
2023-02-06T21:28:52.046Z,26.30
2023-02-06T21:31:25.640Z,26.13
2023-02-06T21:33:52.642Z,26.07
2023-02-06T21:36:21.245Z,22.93
2023-02-06T21:38:48.271Z,21.40
2023-02-06T21:41:18.874Z,21.77
2023-02-06T21:43:46.214Z,22.03
2023-02-06T21:46:13.624Z,21.90
2023-02-06T21:48:41.314Z,21.10
2023-02-06T21:51:16.913Z,21.37
2023-02-06T21:53:45.448Z,21.03
2023-02-06T21:56:17.045Z,21.40
2023-02-06T21:58:44.976Z,22.27
2023-02-06T22:01:17.070Z,21.20
2023-02-06T22:03:45.271Z,21.77
2023-02-06T22:06:13.675Z,21.67
2023-02-06T22:08:45.380Z,22.17
2023-02-06T22:11:16.337Z,22.47
2023-02-06T22:13:44.323Z,20.77
2023-02-06T22:16:13.226Z,20.60
2023-02-06T22:18:40.950Z,21.13
2023-02-06T22:21:14.206Z,20.70
2023-02-06T22:23:42.624Z,22.90
2023-02-06T22:26:12.124Z,20.93
2023-02-06T22:28:39.348Z,21.67
2023-02-06T22:31:08.298Z,20.63
2023-02-06T22:33:35.374Z,19.27
2023-02-06T22:36:30.228Z,18.37
2023-02-06T22:39:06.825Z,19.03
2023-02-06T22:41:37.936Z,20.20
2023-02-06T22:44:05.114Z,19.07
2023-02-06T22:46:35.286Z,17.53
2023-02-06T22:49:04.044Z,17.80
2023-02-06T22:51:31.059Z,16.47
2023-02-06T22:53:58.120Z,17.30
2023-02-06T22:56:41.276Z,16.73
2023-02-06T22:59:24.019Z,15.43
2023-02-06T23:01:55.575Z,16.67
2023-02-06T23:04:25.193Z,16.27
2023-02-06T23:06:53.352Z,14.83
2023-02-06T23:09:26.666Z,15.43
2023-02-06T23:11:54.549Z,15.67
2023-02-06T23:14:21.939Z,15.03
2023-02-06T23:16:49.453Z,14.60
2023-02-06T23:19:17.502Z,14.87
2023-02-06T23:21:46.570Z,13.10
2023-02-06T23:24:14.208Z,14.00
2023-02-06T23:26:43.343Z,12.90
2023-02-06T23:29:15.717Z,13.23
2023-02-06T23:31:43.223Z,13.70
2023-02-06T23:34:10.731Z,12.60
2023-02-06T23:36:37.930Z,12.77
2023-02-06T23:39:05.923Z,13.73
2023-02-06T23:41:33.426Z,12.37
2023-02-06T23:44:03.725Z,12.03
2023-02-06T23:46:33.201Z,11.00
2023-02-06T23:49:00.388Z,11.67
2023-02-06T23:51:27.879Z,10.90
2023-02-06T23:53:54.979Z,10.17
2023-02-06T23:56:26.015Z,10.17
2023-02-06T23:58:54.495Z,10.33
